Portada
METAR-TAF:

METAR-TAF

Aeroports :

Clemson, Carolina del Sud, Estats Units d'Amèrica

latitud: 34-40-20N, longitud: 082-52-53W, altitud: 272 m

Observació

L'informe es va fer fa 45 minuts, a les 08:54 UTC
Vent 3 kt del Est
Temperatura 7°C
Humitat 76%
Pressió 1027 hPa
Visibilitat: 16.1 km
Cel clar

METAR: KCEU 310854Z AUTO 10003KT 10SM CLR 07/03 A3033 RMK AO2 SLP268 T00720033 53021

Hora: 05:39 (09:39 UTC)


TAF: manca

Observacions i pronòstics meteorològics de més de 4000 aeroports (METAR i TAF).

Les estacions disponibles són els punts grocs i vermells al mapa.

Posi el ratolí al punt desitjat per veure el nom de l'estació.

Feu clic per veure les observacions i els pronòstics meteorològics.

Per canviar el mapa: feu clic els botons verds amb una creu de color negre per apropar; al botó verd amb un guió per allunyar la imatge; o en les fletxes verdes per a mapes adjacents.


METAR-TAF: